Time;durP1;ratioP1;P1;durP2;ratioP2;P2;SDS_P1;SDS_P2;PMS_P1;PMS_P2;Temp;Humidity;BMP_temperature;BMP_pressure;BME280_temperature;BME280_humidity;BME280_pressure;Samples;Min_cycle;Max_cycle;Signal;HPM_P1;HPM_P2
2023/08/24 00:01:18;;;;;;;1.05;0.30;;;;;;;28.84;63.64;99782.97;7392555;19;20011;-52
2023/08/24 00:03:45;;;;;;;0.43;0.25;;;;;;;31.47;58.92;99785.28;7401880;19;20029;-51
2023/08/24 00:06:12;;;;;;;1.63;0.73;;;;;;;39.25;40.78;99765.94;7400292;19;20078;-51
2023/08/24 00:08:38;;;;;;;5.63;0.77;;;;;;;35.78;51.00;99762.66;7399866;19;20015;-52
2023/08/24 00:11:05;;;;;;;1.30;0.45;;;;;;;38.31;42.99;99745.31;7398466;19;20463;-52
2023/08/24 00:13:32;;;;;;;1.65;0.47;;;;;;;33.87;50.33;99756.81;7399416;19;20066;-51
2023/08/24 00:15:58;;;;;;;1.65;0.63;;;;;;;34.29;50.77;99761.94;7399312;19;20866;-52
2023/08/24 00:18:24;;;;;;;1.42;0.43;;;;;;;35.12;49.42;99768.97;7400232;19;20011;-63
2023/08/24 00:20:51;;;;;;;0.57;0.30;;;;;;;35.70;47.84;99771.75;7400518;19;20011;-63
2023/08/24 00:23:18;;;;;;;14.65;0.88;;;;;;;33.68;51.41;99763.00;7399137;19;20034;-52
2023/08/24 00:25:44;;;;;;;1.77;0.47;;;;;;;36.37;47.97;99763.84;7401500;19;20010;-51
2023/08/24 00:28:10;;;;;;;0.52;0.30;;;;;;;38.67;43.89;99749.44;7398747;19;20343;-51
2023/08/24 00:30:37;;;;;;;1.55;0.70;;;;;;;39.86;41.29;99753.91;7397131;19;20015;-52
2023/08/24 00:33:04;;;;;;;0.40;0.20;;;;;;;39.83;40.69;99758.19;7400453;19;20502;-52
2023/08/24 00:35:30;;;;;;;0.60;0.20;;;;;;;39.78;40.24;99762.44;7399135;19;20013;-52
2023/08/24 00:37:56;;;;;;;0.20;0.10;;;;;;;40.66;39.41;99745.84;7398653;19;20137;-52
2023/08/24 00:40:24;;;;;;;1.00;0.90;;;;;;;28.07;64.90;99758.50;7401542;19;20011;-52
2023/08/24 00:42:51;;;;;;;1.17;0.20;;;;;;;29.78;57.35;99748.88;7398222;19;20027;-51
2023/08/24 00:45:17;;;;;;;4.18;0.82;;;;;;;36.75;51.09;99729.91;7401564;19;20014;-52
2023/08/24 00:47:46;;;;;;;0.32;0.20;;;;;;;32.64;57.00;99740.53;7400040;19;20549;-51
2023/08/24 00:50:12;;;;;;;0.45;0.20;;;;;;;39.46;42.52;99737.41;7403108;19;20480;-52
2023/08/24 00:52:41;;;;;;;0.95;0.47;;;;;;;41.22;38.97;99747.22;7399146;19;20011;-52
2023/08/24 00:55:09;;;;;;;0.45;0.20;;;;;;;41.90;36.96;99747.22;7399013;19;20014;-52
2023/08/24 00:57:37;;;;;;;0.22;0.22;;;;;;;41.96;36.48;99751.00;7397726;19;20335;-52
2023/08/24 01:00:08;;;;;;;0.90;0.45;;;;;;;42.98;34.79;99749.19;7397410;19;20021;-52
2023/08/24 01:02:34;;;;;;;0.93;0.43;;;;;;;33.54;54.57;99742.03;7396361;19;20042;-52
2023/08/24 01:05:00;;;;;;;0.40;0.20;;;;;;;39.30;44.98;99731.84;7396280;19;20015;-51
2023/08/24 01:07:27;;;;;;;0.80;0.65;;;;;;;41.90;37.77;99726.75;7398581;19;20485;-51
2023/08/24 01:09:53;;;;;;;0.38;0.10;;;;;;;35.96;44.25;99730.84;7396580;19;20684;-51
2023/08/24 01:12:25;;;;;;;0.10;0.00;;;;;;;33.70;50.13;99737.09;7396545;19;20110;-52
2023/08/24 01:15:15;;;;;;;3.40;0.10;;;;;;;30.85;57.94;99743.81;7395935;19;20254;-51
2023/08/24 01:17:43;;;;;;;0.68;0.17;;;;;;;30.01;64.60;99744.66;7396072;19;20070;-51
2023/08/24 01:20:11;;;;;;;3.72;0.50;;;;;;;29.67;66.04;99735.16;7400833;19;20038;-52
2023/08/24 01:22:44;;;;;;;0.30;0.28;;;;;;;29.95;66.60;99731.38;7397947;19;20018;-51
2023/08/24 01:25:24;;;;;;;0.63;0.10;;;;;;;30.95;63.66;99736.63;7393688;19;20028;-52
2023/08/24 01:27:52;;;;;;;2.08;0.30;;;;;;;31.53;61.46;99735.97;7397443;19;20007;-51
2023/08/24 01:30:19;;;;;;;0.55;0.35;;;;;;;31.05;62.64;99737.28;7399865;19;20010;-51
2023/08/24 01:32:46;;;;;;;0.90;0.30;;;;;;;30.18;65.22;99736.53;7397588;19;20022;-51
2023/08/24 01:35:12;;;;;;;0.68;0.40;;;;;;;30.81;64.93;99735.69;7397211;19;20022;-52
2023/08/24 01:37:38;;;;;;;1.75;0.30;;;;;;;32.79;59.39;99729.16;7396174;19;20446;-51
2023/08/24 01:40:37;;;;;;;0.82;0.40;;;;;;;31.65;61.17;99728.09;7399189;19;20078;-52
2023/08/24 01:43:07;;;;;;;0.73;0.20;;;;;;;30.91;63.62;99724.09;7394630;19;20018;-51
2023/08/24 01:45:33;;;;;;;2.17;0.40;;;;;;;31.33;62.14;99724.69;7396160;19;20037;-52
2023/08/24 01:48:03;;;;;;;0.20;0.10;;;;;;;32.82;59.41;99718.50;7394569;19;20015;-52
2023/08/24 01:50:30;;;;;;;0.63;0.45;;;;;;;31.85;60.44;99714.91;7394629;19;20014;-52
2023/08/24 01:52:57;;;;;;;0.57;0.20;;;;;;;32.88;57.62;99707.28;7396313;19;20022;-51
2023/08/24 01:55:25;;;;;;;1.35;0.28;;;;;;;32.03;60.14;99707.41;7400267;19;20098;-52
2023/08/24 01:57:51;;;;;;;1.05;0.52;;;;;;;36.50;50.25;99696.25;7394325;19;20033;-52
2023/08/24 02:00:18;;;;;;;1.10;0.40;;;;;;;36.89;48.46;99695.66;7396443;19;20006;-52
2023/08/24 02:02:46;;;;;;;0.57;0.30;;;;;;;36.50;47.06;99687.53;7393224;19;20015;-51
2023/08/24 02:05:13;;;;;;;1.15;0.20;;;;;;;38.11;44.41;99683.50;7392651;19;20021;-52
2023/08/24 02:07:40;;;;;;;0.63;0.35;;;;;;;40.84;40.04;99673.28;7395345;19;20014;-52
2023/08/24 02:10:07;;;;;;;0.35;0.22;;;;;;;42.16;36.69;99674.56;7396706;19;20026;-52
2023/08/24 02:12:33;;;;;;;8.88;0.60;;;;;;;42.48;35.97;99657.56;7396090;19;20596;-52
2023/08/24 02:14:59;;;;;;;1.55;0.20;;;;;;;42.87;34.82;99655.94;7393805;19;20466;-52
2023/08/24 02:17:28;;;;;;;0.20;0.10;;;;;;;36.26;41.70;99656.75;7399198;19;20027;-52
2023/08/24 02:19:55;;;;;;;1.25;0.80;;;;;;;34.39;46.53;99663.38;7395549;19;20011;-52
2023/08/24 02:22:21;;;;;;;0.75;0.30;;;;;;;34.88;46.59;99649.84;7395407;19;20430;-51
2023/08/24 02:24:47;;;;;;;0.90;0.73;;;;;;;34.31;47.99;99660.81;7391660;19;20024;-51
2023/08/24 02:27:13;;;;;;;0.55;0.43;;;;;;;34.14;47.32;99646.19;7395809;19;20346;-52
2023/08/24 02:29:40;;;;;;;3.28;0.52;;;;;;;33.74;48.35;99655.69;7400713;19;20010;-51
2023/08/24 02:32:06;;;;;;;2.28;0.40;;;;;;;32.77;50.80;99656.94;7396188;19;20099;-51
2023/08/24 02:34:32;;;;;;;0.65;0.50;;;;;;;33.88;49.10;99662.94;7395691;19;20010;-51
2023/08/24 02:36:58;;;;;;;0.15;0.08;;;;;;;32.28;52.54;99651.91;7395312;19;20019;-52
2023/08/24 02:39:25;;;;;;;0.40;0.35;;;;;;;32.99;51.84;99648.00;7396108;19;20014;-51
2023/08/24 02:41:52;;;;;;;2.30;0.47;;;;;;;33.68;51.74;99664.78;7393812;19;20360;-52
2023/08/24 02:44:18;;;;;;;1.75;0.90;;;;;;;34.78;49.04;99666.00;7393829;19;20451;-51
2023/08/24 02:46:44;;;;;;;0.75;0.17;;;;;;;36.35;46.27;99649.88;7393699;19;20360;-52
2023/08/24 02:49:10;;;;;;;0.38;0.32;;;;;;;37.11;44.69;99650.06;7394226;19;20011;-52
2023/08/24 02:51:36;;;;;;;0.63;0.40;;;;;;;38.03;43.04;99654.88;7394673;19;20014;-51
2023/08/24 02:54:04;;;;;;;2.08;0.80;;;;;;;38.45;41.77;99652.66;7392680;19;20542;-52
2023/08/24 02:56:30;;;;;;;0.13;0.13;;;;;;;38.29;41.90;99658.69;7397368;19;20082;-52
2023/08/24 02:58:56;;;;;;;0.40;0.38;;;;;;;37.46;42.71;99654.25;7393247;19;20119;-51
2023/08/24 03:01:22;;;;;;;0.50;0.30;;;;;;;37.29;43.25;99652.16;7395049;19;20355;-51
2023/08/24 03:03:49;;;;;;;1.80;0.60;;;;;;;36.90;43.71;99653.63;7393306;19;20019;-51
2023/08/24 03:06:15;;;;;;;2.08;0.65;;;;;;;36.94;43.38;99653.75;7395427;19;20014;-51
2023/08/24 03:08:41;;;;;;;5.13;0.40;;;;;;;36.72;43.73;99646.31;7394183;19;20373;-51
2023/08/24 03:11:07;;;;;;;1.17;0.60;;;;;;;36.90;43.27;99650.72;7392882;19;20040;-51
2023/08/24 03:13:38;;;;;;;1.90;1.00;;;;;;;37.29;42.64;99635.47;7392655;19;20018;-51
2023/08/24 03:16:05;;;;;;;1.47;0.57;;;;;;;37.63;42.04;99636.75;7391153;19;20080;-51
2023/08/24 03:18:32;;;;;;;9.15;0.73;;;;;;;37.63;41.90;99635.97;7391586;19;20017;-51
2023/08/24 03:20:58;;;;;;;1.85;0.90;;;;;;;37.70;41.89;99646.41;7391822;19;20099;-51
2023/08/24 03:23:24;;;;;;;2.70;1.35;;;;;;;37.85;41.22;99645.53;7393132;19;20021;-51
2023/08/24 03:25:51;;;;;;;9.25;0.90;;;;;;;38.26;40.91;99647.66;7395294;19;20014;-51
2023/08/24 03:28:17;;;;;;;4.70;0.47;;;;;;;36.23;43.47;99649.38;7394013;19;20086;-52
2023/08/24 03:30:48;;;;;;;1.35;0.30;;;;;;;34.07;47.12;99653.81;7392772;19;20025;-51
2023/08/24 03:33:15;;;;;;;2.15;0.40;;;;;;;34.72;46.73;99642.53;7392498;19;20038;-51
2023/08/24 03:35:41;;;;;;;0.32;0.20;;;;;;;34.69;46.56;99646.75;7393131;19;20018;-51
2023/08/24 03:38:08;;;;;;;2.03;0.40;;;;;;;33.68;48.58;99647.44;7399713;19;20018;-51
2023/08/24 03:40:34;;;;;;;0.75;0.43;;;;;;;33.22;49.57;99647.88;7404068;19;20070;-51
2023/08/24 03:43:02;;;;;;;0.85;0.43;;;;;;;33.53;50.12;99640.19;7400986;19;20466;-51
2023/08/24 03:45:28;;;;;;;1.58;0.73;;;;;;;36.54;45.71;99636.91;7401057;19;20051;-51
2023/08/24 03:47:55;;;;;;;2.15;0.70;;;;;;;36.41;44.52;99632.72;7398941;19;20018;-51
2023/08/24 03:50:22;;;;;;;0.40;0.30;;;;;;;35.49;45.64;99633.16;7398918;19;20007;-51
2023/08/24 03:52:50;;;;;;;0.10;0.03;;;;;;;35.34;46.21;99622.31;7400153;19;20010;-51
2023/08/24 03:55:16;;;;;;;1.40;0.30;;;;;;;35.80;44.92;99612.03;7399375;19;20022;-52
2023/08/24 03:57:43;;;;;;;1.58;0.55;;;;;;;35.66;44.58;99617.97;7399534;19;20019;-52
2023/08/24 04:00:14;;;;;;;0.45;0.35;;;;;;;36.67;43.36;99616.38;7400754;19;20019;-51
2023/08/24 04:02:41;;;;;;;0.15;0.15;;;;;;;35.80;44.32;99606.97;7400485;19;20073;-51
2023/08/24 04:05:09;;;;;;;1.10;0.40;;;;;;;35.58;44.22;99617.63;7396026;19;20017;-51
2023/08/24 04:07:39;;;;;;;2.47;0.20;;;;;;;36.21;43.22;99600.72;7398677;19;20025;-52
2023/08/24 04:10:06;;;;;;;5.22;1.05;;;;;;;37.07;42.46;99600.53;7400340;19;20010;-51
2023/08/24 04:12:32;;;;;;;1.55;0.30;;;;;;;37.02;42.25;99592.31;7399409;19;20017;-52
2023/08/24 04:14:59;;;;;;;1.85;0.52;;;;;;;37.46;41.42;99584.53;7400903;19;20399;-51
2023/08/24 04:17:25;;;;;;;0.25;0.10;;;;;;;37.65;41.39;99581.56;7399885;19;20031;-52
2023/08/24 04:19:52;;;;;;;3.90;0.20;;;;;;;37.91;40.61;99584.66;7398699;19;20043;-51
2023/08/24 04:22:19;;;;;;;3.25;0.50;;;;;;;39.73;38.95;99582.94;7398329;19;20184;-51
2023/08/24 04:24:45;;;;;;;0.50;0.28;;;;;;;39.63;38.82;99590.69;7397501;19;20027;-51
2023/08/24 04:27:11;;;;;;;1.17;0.55;;;;;;;39.69;38.01;99582.06;7403201;19;20014;-62
2023/08/24 04:29:37;;;;;;;2.83;0.63;;;;;;;38.37;39.48;99580.38;7399595;19;20457;-62
2023/08/24 04:32:04;;;;;;;0.95;0.35;;;;;;;37.87;39.60;99567.06;7399460;19;20014;-62
2023/08/24 04:34:30;;;;;;;1.20;0.40;;;;;;;40.86;36.72;99559.41;7399662;19;20009;-61
2023/08/24 04:36:56;;;;;;;1.60;0.45;;;;;;;42.61;34.65;99555.94;7399441;19;20014;-62
2023/08/24 04:39:22;;;;;;;0.65;0.43;;;;;;;40.95;35.37;99549.38;7400080;19;20513;-62
2023/08/24 04:41:48;;;;;;;0.73;0.25;;;;;;;36.69;39.67;99560.56;7396494;19;20074;-62
2023/08/24 04:44:14;;;;;;;0.80;0.30;;;;;;;34.99;42.49;99570.00;7397073;19;20465;-62
2023/08/24 04:46:40;;;;;;;2.67;0.10;;;;;;;35.07;42.21;99564.63;7398242;19;20093;-62
2023/08/24 04:49:07;;;;;;;0.20;0.10;;;;;;;37.82;39.55;99554.56;7396063;19;20466;-62
2023/08/24 04:51:33;;;;;;;1.73;0.55;;;;;;;38.01;38.81;99564.63;7400233;19;20014;-63
2023/08/24 04:53:59;;;;;;;0.82;0.20;;;;;;;36.39;40.40;99571.69;7397849;19;20084;-63
2023/08/24 04:56:25;;;;;;;2.72;0.32;;;;;;;36.35;40.87;99566.50;7400067;19;20039;-62
2023/08/24 04:58:58;;;;;;;0.52;0.30;;;;;;;38.19;39.00;99568.13;7397347;19;20014;-62
2023/08/24 05:01:24;;;;;;;2.53;0.25;;;;;;;40.81;36.08;99558.53;7398148;19;20019;-62
2023/08/24 05:03:52;;;;;;;2.22;0.55;;;;;;;41.75;34.97;99567.75;7401867;19;20015;-62
2023/08/24 05:06:19;;;;;;;3.00;0.45;;;;;;;39.74;35.98;99569.84;7398392;19;20032;-53
2023/08/24 05:08:45;;;;;;;1.58;0.30;;;;;;;38.92;37.47;99576.25;7395904;19;20347;-63
2023/08/24 05:11:22;;;;;;;0.47;0.10;;;;;;;38.86;37.52;99576.81;7394961;19;20018;-63
2023/08/24 05:13:48;;;;;;;0.40;0.30;;;;;;;38.25;38.48;99570.53;7398871;19;20038;-63
2023/08/24 05:16:14;;;;;;;1.02;0.40;;;;;;;38.73;37.82;99563.31;7395679;19;20099;-62
2023/08/24 05:18:40;;;;;;;0.95;0.70;;;;;;;36.87;39.47;99556.19;7395186;19;20014;-62
2023/08/24 05:21:06;;;;;;;3.88;0.47;;;;;;;36.89;39.90;99558.44;7395543;19;20110;-62
2023/08/24 05:23:34;;;;;;;1.00;0.57;;;;;;;39.07;37.88;99564.31;7399148;19;20094;-62
2023/08/24 05:26:02;;;;;;;2.70;0.95;;;;;;;40.05;36.33;99563.34;7399213;19;20014;-62
2023/08/24 05:28:29;;;;;;;1.48;0.35;;;;;;;41.01;35.59;99543.63;7397891;19;20023;-63
2023/08/24 05:30:55;;;;;;;2.13;0.57;;;;;;;37.35;38.68;99554.38;7397644;19;20104;-62
2023/08/24 05:33:23;;;;;;;7.07;0.65;;;;;;;36.72;40.41;99554.16;7400199;19;20014;-62
2023/08/24 05:35:50;;;;;;;0.43;0.30;;;;;;;36.68;40.00;99553.25;7397855;19;20022;-62
2023/08/24 05:38:17;;;;;;;1.00;0.90;;;;;;;36.24;41.33;99555.16;7398057;19;20027;-62
2023/08/24 05:40:46;;;;;;;1.60;0.55;;;;;;;36.66;40.59;99544.47;7401098;19;20015;-63
2023/08/24 05:43:12;;;;;;;2.20;0.50;;;;;;;36.99;40.27;99542.13;7397019;19;20013;-63
2023/08/24 05:45:44;;;;;;;0.52;0.25;;;;;;;38.70;38.75;99537.75;7395087;19;20469;-63
2023/08/24 05:48:11;;;;;;;0.20;0.20;;;;;;;41.93;34.93;99549.75;7396324;19;20038;-63
2023/08/24 05:50:41;;;;;;;0.88;0.20;;;;;;;43.51;32.96;99550.47;7396761;19;20042;-63
2023/08/24 05:53:08;;;;;;;1.90;0.63;;;;;;;45.12;31.03;99539.81;7398782;19;20027;-63
2023/08/24 05:55:34;;;;;;;1.10;0.43;;;;;;;45.51;30.73;99534.78;7396988;19;20491;-63
2023/08/24 05:58:00;;;;;;;0.40;0.40;;;;;;;45.59;29.94;99531.88;7396546;19;20022;-62
2023/08/24 06:00:26;;;;;;;0.80;0.40;;;;;;;31.27;45.32;99559.50;7395968;19;20018;-63
2023/08/24 06:02:52;;;;;;;1.25;0.45;;;;;;;39.00;43.58;99559.00;7397365;19;20463;-62
2023/08/24 06:05:18;;;;;;;1.95;0.75;;;;;;;44.79;33.23;99544.81;7393838;19;20010;-63
2023/08/24 06:07:45;;;;;;;0.25;0.25;;;;;;;33.46;56.61;99563.25;7395233;19;20014;-63
2023/08/24 06:10:12;;;;;;;5.68;0.93;;;;;;;35.30;52.00;99555.53;7396016;19;20018;-63
2023/08/24 06:12:39;;;;;;;1.17;0.45;;;;;;;26.98;73.63;99556.25;7396898;19;20477;-63
2023/08/24 06:15:07;;;;;;;1.02;0.45;;;;;;;26.43;83.43;99556.16;7396649;19;20338;-63
2023/08/24 06:17:36;;;;;;;3.60;0.47;;;;;;;23.85;100.00;99565.50;7393958;19;20018;-63
2023/08/24 06:20:03;;;;;;;0.68;0.50;;;;;;;22.54;100.00;99556.13;7393711;19;20339;-63
2023/08/24 06:22:30;;;;;;;0.45;0.28;;;;;;;22.38;100.00;99548.19;7395629;19;20023;-63
2023/08/24 06:24:59;;;;;;;2.38;0.15;;;;;;;21.97;100.00;99542.78;7393394;19;20018;-64
2023/08/24 06:27:26;;;;;;;2.63;0.85;;;;;;;21.96;100.00;99547.69;7399441;19;20014;-63
2023/08/24 06:29:52;;;;;;;2.05;0.50;;;;;;;20.58;100.00;99538.09;7394821;19;20022;-63
2023/08/24 06:32:19;;;;;;;1.17;0.30;;;;;;;30.01;96.01;99520.63;7395054;19;20014;-63
2023/08/24 06:34:45;;;;;;;0.80;0.30;;;;;;;19.27;100.00;99527.13;7395227;19;20514;-63
2023/08/24 06:37:11;;;;;;;0.57;0.20;;;;;;;22.31;100.00;99521.31;7395479;19;20017;-63
2023/08/24 06:39:37;;;;;;;6.60;1.15;;;;;;;20.91;100.00;99525.94;7397992;19;20328;-63
2023/08/24 06:42:04;;;;;;;2.03;0.30;;;;;;;17.61;100.00;99535.47;7393901;19;20006;-63
2023/08/24 06:44:30;;;;;;;2.55;0.65;;;;;;;17.90;100.00;99528.94;7392390;19;20014;-63
2023/08/24 06:46:57;;;;;;;1.33;0.22;;;;;;;17.24;100.00;99541.00;7394816;19;20028;-63
2023/08/24 06:49:23;;;;;;;2.15;0.35;;;;;;;16.99;100.00;99542.31;7394489;19;20010;-63
2023/08/24 06:51:49;;;;;;;0.95;0.28;;;;;;;16.77;100.00;99534.84;7395161;19;20014;-63
2023/08/24 06:54:15;;;;;;;0.73;0.70;;;;;;;16.83;100.00;99529.19;7399485;19;20007;-63
2023/08/24 06:56:43;;;;;;;1.45;0.55;;;;;;;16.78;100.00;99541.25;7397090;19;20011;-63
2023/08/24 06:59:11;;;;;;;7.10;0.63;;;;;;;16.31;100.00;99535.72;7395420;19;20023;-62
2023/08/24 07:01:37;;;;;;;0.40;0.20;;;;;;;16.32;100.00;99542.91;7394662;19;20050;-63
2023/08/24 07:04:03;;;;;;;0.40;0.35;;;;;;;16.38;100.00;99540.78;7397688;19;20024;-62
2023/08/24 07:06:29;;;;;;;0.55;0.50;;;;;;;16.88;100.00;99536.78;7394159;19;20006;-63
2023/08/24 07:08:55;;;;;;;7.13;1.40;;;;;;;19.39;100.00;99534.09;7392244;19;20007;-63
2023/08/24 07:11:23;;;;;;;0.57;0.20;;;;;;;17.00;100.00;99532.59;7392981;19;20015;-63
2023/08/24 07:13:50;;;;;;;1.05;0.20;;;;;;;17.00;100.00;99544.59;7396825;19;20034;-63
2023/08/24 07:16:16;;;;;;;0.40;0.10;;;;;;;16.41;100.00;99548.19;7393778;19;20018;-63
2023/08/24 07:18:42;;;;;;;3.13;0.47;;;;;;;16.52;100.00;99545.28;7393363;19;20007;-63
2023/08/24 07:21:08;;;;;;;6.18;0.35;;;;;;;16.48;100.00;99544.78;7393018;19;20350;-63
2023/08/24 07:23:34;;;;;;;1.40;0.50;;;;;;;16.88;100.00;99536.78;7395993;19;20070;-63
2023/08/24 07:26:00;;;;;;;1.00;0.22;;;;;;;16.88;100.00;99529.13;7397780;19;20010;-63
2023/08/24 07:28:27;;;;;;;12.45;0.45;;;;;;;17.79;100.00;99531.91;7392984;19;20014;-63
2023/08/24 07:30:55;;;;;;;0.43;0.30;;;;;;;17.32;100.00;99522.25;7393006;19;20015;-63
2023/08/24 07:33:22;;;;;;;1.20;0.47;;;;;;;18.26;100.00;99526.59;7395890;19;20070;-63
2023/08/24 07:35:48;;;;;;;0.30;0.10;;;;;;;20.80;100.00;99514.88;7393556;19;20007;-63
2023/08/24 07:38:14;;;;;;;2.17;0.13;;;;;;;21.21;100.00;99502.72;7393149;19;20467;-62
2023/08/24 07:40:40;;;;;;;1.10;0.25;;;;;;;21.66;100.00;99493.69;7398123;19;20011;-52
2023/08/24 07:43:07;;;;;;;2.10;0.30;;;;;;;21.88;100.00;99495.88;7395484;19;20041;-52
2023/08/24 07:45:33;;;;;;;0.10;0.00;;;;;;;22.66;100.00;99504.72;7393130;19;20021;-52
2023/08/24 07:47:59;;;;;;;1.98;0.52;;;;;;;22.34;100.00;99499.56;7392689;19;20022;-52
2023/08/24 07:50:26;;;;;;;0.10;0.05;;;;;;;22.79;100.00;99487.47;7393785;19;20015;-51
2023/08/24 07:52:52;;;;;;;0.20;0.10;;;;;;;23.58;100.00;99484.88;7392971;19;20046;-51
2023/08/24 07:55:18;;;;;;;0.10;0.10;;;;;;;22.65;100.00;99481.25;7393595;19;20010;-53
2023/08/24 07:57:44;;;;;;;0.75;0.10;;;;;;;22.99;100.00;99486.50;7392634;19;20014;-52
2023/08/24 08:00:13;;;;;;;1.05;0.10;;;;;;;26.23;100.00;99466.03;7392396;19;20469;-52
2023/08/24 08:02:39;;;;;;;2.90;0.10;;;;;;;23.65;100.00;99481.22;7394063;19;20011;-51
2023/08/24 08:05:10;;;;;;;1.63;0.38;;;;;;;23.46;100.00;99483.75;7391370;19;20027;-51
2023/08/24 08:07:36;;;;;;;0.32;0.25;;;;;;;23.51;100.00;99482.78;7393222;19;20015;-51
2023/08/24 08:10:04;;;;;;;0.57;0.00;;;;;;;23.52;100.00;99478.59;7390922;19;20046;-51
2023/08/24 08:12:32;;;;;;;1.45;0.20;;;;;;;22.93;100.00;99488.81;7392974;19;20052;-51
2023/08/24 08:14:58;;;;;;;0.40;0.10;;;;;;;20.65;100.00;99475.16;7392151;19;20015;-52
2023/08/24 08:17:24;;;;;;;1.33;0.10;;;;;;;19.18;100.00;99490.09;7390483;19;20078;-51
2023/08/24 08:19:57;;;;;;;0.40;0.00;;;;;;;19.29;100.00;99479.34;7392100;19;20066;-51
2023/08/24 08:22:23;;;;;;;0.57;0.10;;;;;;;18.82;100.00;99462.28;7394195;19;20010;-51
2023/08/24 08:24:50;;;;;;;0.38;0.10;;;;;;;18.39;100.00;99467.41;7397134;19;20968;-51
2023/08/24 08:27:16;;;;;;;0.70;0.52;;;;;;;18.54;100.00;99466.94;7403733;19;20098;-52
2023/08/24 08:29:42;;;;;;;0.85;0.30;;;;;;;19.38;100.00;99453.47;7399248;19;20014;-51
2023/08/24 08:32:08;;;;;;;0.70;0.13;;;;;;;18.99;100.00;99450.72;7399535;19;20006;-51
2023/08/24 08:34:35;;;;;;;0.20;0.10;;;;;;;22.32;100.00;99460.41;7399237;19;20349;-52
2023/08/24 08:37:01;;;;;;;0.22;0.13;;;;;;;19.60;100.00;99457.88;7398901;19;20046;-52
2023/08/24 08:39:27;;;;;;;0.10;0.00;;;;;;;19.00;100.00;99454.25;7399797;19;20018;-52
2023/08/24 08:41:53;;;;;;;0.15;0.08;;;;;;;18.81;100.00;99451.56;7399120;19;20082;-51
2023/08/24 08:44:21;;;;;;;0.20;0.20;;;;;;;21.79;100.00;99462.34;7401551;19;20023;-51
2023/08/24 08:46:50;;;;;;;0.20;0.10;;;;;;;19.27;100.00;99465.00;7399206;19;20085;-51
2023/08/24 08:49:19;;;;;;;0.10;0.10;;;;;;;19.22;100.00;99451.75;7399076;19;20017;-52
2023/08/24 08:51:45;;;;;;;0.50;0.20;;;;;;;19.12;100.00;99458.41;7397711;19;20014;-51
2023/08/24 08:54:12;;;;;;;0.10;0.10;;;;;;;19.16;100.00;99467.28;7401295;19;20629;-52
2023/08/24 08:56:38;;;;;;;0.10;0.00;;;;;;;19.30;100.00;99463.91;7401025;19;20021;-51
2023/08/24 08:59:08;;;;;;;0.32;0.00;;;;;;;21.64;100.00;99457.41;7397403;19;20035;-52
2023/08/24 09:01:35;;;;;;;0.10;0.10;;;;;;;20.63;100.00;99457.97;7398726;19;20019;-52
2023/08/24 09:04:02;;;;;;;0.10;0.10;;;;;;;19.02;100.00;99460.88;7401270;19;20455;-52
2023/08/24 09:06:29;;;;;;;0.30;0.00;;;;;;;22.70;100.00;99465.38;7397918;19;20010;-52
2023/08/24 09:08:56;;;;;;;0.40;0.32;;;;;;;23.22;100.00;99464.47;7397766;19;20403;-53
2023/08/24 09:11:23;;;;;;;1.55;0.38;;;;;;;23.28;100.00;99459.38;7398470;19;20021;-52
2023/08/24 09:13:49;;;;;;;0.82;0.10;;;;;;;23.58;100.00;99462.13;7401447;19;20007;-52
2023/08/24 09:16:17;;;;;;;0.08;0.03;;;;;;;23.78;100.00;99463.91;7398184;19;20018;-52
2023/08/24 09:18:45;;;;;;;1.85;0.30;;;;;;;24.22;100.00;99469.16;7398117;19;20030;-52
2023/08/24 09:21:15;;;;;;;0.52;0.10;;;;;;;24.64;100.00;99465.03;7398835;19;20010;-52
2023/08/24 09:23:48;;;;;;;;;;;;;;;24.38;100.00;99467.72;7400287;19;20018;-51
2023/08/24 09:26:14;;;;;;;0.17;0.10;;;;;;;24.04;100.00;99463.38;7397844;19;19922;-52
2023/08/24 09:28:43;;;;;;;0.10;0.10;;;;;;;20.85;100.00;99460.22;7393554;19;20007;-52
2023/08/24 09:31:12;;;;;;;0.20;0.00;;;;;;;21.16;100.00;99458.31;7395715;19;20019;-52
2023/08/24 09:33:38;;;;;;;0.20;0.10;;;;;;;21.93;100.00;99469.44;7397984;19;20029;-52
2023/08/24 09:36:07;;;;;;;2.10;0.25;;;;;;;23.59;100.00;99474.97;7393095;19;20015;-52
2023/08/24 09:38:35;;;;;;;1.85;0.32;;;;;;;23.74;100.00;99469.22;7395226;19;20006;-52
2023/08/24 09:41:01;;;;;;;0.30;0.20;;;;;;;25.25;100.00;99465.19;7394622;19;20017;-52
2023/08/24 09:43:30;;;;;;;1.67;0.22;;;;;;;24.18;100.00;99477.34;7396120;19;20015;-52
2023/08/24 09:45:56;;;;;;;3.00;0.30;;;;;;;31.43;94.35;99469.13;7396311;19;20346;-52
2023/08/24 09:48:23;;;;;;;2.83;0.77;;;;;;;35.04;74.63;99467.50;7396437;19;20014;-52
2023/08/24 09:50:51;;;;;;;1.63;0.63;;;;;;;33.92;73.26;99481.06;7396586;19;20006;-52
2023/08/24 09:53:22;;;;;;;1.20;0.10;;;;;;;33.11;69.63;99482.06;7398558;19;20010;-53
2023/08/24 09:56:08;;;;;;;0.47;0.20;;;;;;;32.94;69.56;99470.28;7398142;19;20038;-52
2023/08/24 09:58:35;;;;;;;1.92;0.40;;;;;;;39.74;51.93;99450.28;7399012;19;20017;-53
2023/08/24 10:01:01;;;;;;;0.75;0.43;;;;;;;45.23;37.70;99432.53;7395809;19;20023;-53
2023/08/24 10:03:32;;;;;;;1.20;0.52;;;;;;;45.59;35.07;99432.53;7397734;19;20015;-52
2023/08/24 10:06:00;;;;;;;1.17;0.52;;;;;;;42.16;35.56;99434.50;7396119;19;20010;-52
2023/08/24 10:08:36;;;;;;;1.33;0.25;;;;;;;46.60;31.07;99425.66;7399779;19;20010;-53
2023/08/24 10:11:03;;;;;;;1.30;0.40;;;;;;;29.36;64.99;99453.22;7395028;19;20021;-52
2023/08/24 10:14:06;;;;;;;5.22;0.50;;;;;;;25.58;100.00;99455.13;7397959;19;20018;-52
2023/08/24 10:16:34;;;;;;;1.75;0.63;;;;;;;37.37;65.66;99446.16;7396392;19;20010;-52
2023/08/24 10:19:01;;;;;;;1.23;0.25;;;;;;;41.32;48.18;99446.34;7396330;19;20010;-52
2023/08/24 10:21:28;;;;;;;0.50;0.43;;;;;;;35.88;48.81;99457.97;7394150;19;20014;-52
2023/08/24 10:23:58;;;;;;;1.00;0.50;;;;;;;32.34;64.59;99459.88;7398323;19;20343;-52
2023/08/24 10:26:24;;;;;;;0.73;0.35;;;;;;;31.90;67.76;99463.16;7395850;19;20042;-51
2023/08/24 10:28:52;;;;;;;3.08;0.90;;;;;;;33.46;60.90;99453.50;7395746;19;20014;-52
2023/08/24 10:31:21;;;;;;;0.80;0.30;;;;;;;39.73;43.19;99445.84;7393886;19;20361;-51
2023/08/24 10:33:49;;;;;;;4.20;0.50;;;;;;;42.34;38.02;99455.25;7397168;19;20038;-51
2023/08/24 10:36:16;;;;;;;2.28;0.25;;;;;;;32.88;58.08;99465.69;7393746;19;20554;-51
2023/08/24 10:38:43;;;;;;;1.30;0.50;;;;;;;31.61;67.13;99455.03;7394001;19;20026;-50
2023/08/24 10:41:12;;;;;;;0.57;0.32;;;;;;;31.16;71.28;99451.69;7395109;19;20018;-51
2023/08/24 10:43:48;;;;;;;0.10;0.10;;;;;;;30.89;73.87;99462.25;7398301;19;20011;-51
2023/08/24 10:46:17;;;;;;;0.30;0.10;;;;;;;30.94;74.99;99452.50;7392706;19;20010;-51
2023/08/24 10:48:46;;;;;;;1.02;0.28;;;;;;;30.87;75.91;99448.50;7398655;19;20383;-50
2023/08/24 10:51:19;;;;;;;1.05;0.20;;;;;;;30.63;77.58;99458.50;7393624;19;20035;-50
2023/08/24 10:53:59;;;;;;;1.05;0.30;;;;;;;30.36;78.62;99461.91;7395791;19;20018;-49
2023/08/24 10:56:38;;;;;;;0.30;0.10;;;;;;;30.13;79.99;99464.69;7395175;19;20541;-50
2023/08/24 10:59:12;;;;;;;0.20;0.10;;;;;;;30.07;82.00;99449.19;7394365;19;20355;-50
2023/08/24 11:01:39;;;;;;;1.27;0.30;;;;;;;30.49;82.21;99437.53;7394283;19;20082;-49
2023/08/24 11:04:07;;;;;;;2.15;0.60;;;;;;;30.64;83.04;99440.63;7397482;19;20022;-49
2023/08/24 11:06:34;;;;;;;2.45;0.20;;;;;;;30.51;82.74;99444.16;7393913;19;20014;-50
2023/08/24 11:09:15;;;;;;;1.23;0.20;;;;;;;43.21;42.96;99444.56;7393525;19;20021;-50
2023/08/24 11:11:41;;;;;;;1.45;0.10;;;;;;;34.29;58.31;99463.31;7394283;19;20027;-50
2023/08/24 11:14:19;;;;;;;1.25;0.20;;;;;;;40.47;44.47;99455.59;7397242;19;20085;-50
2023/08/24 11:16:47;;;;;;;1.20;0.43;;;;;;;32.33;63.96;99472.03;7394282;19;20011;-50
2023/08/24 11:19:14;;;;;;;0.13;0.10;;;;;;;32.11;69.99;99471.56;7393986;19;20028;-50
2023/08/24 11:21:42;;;;;;;0.93;0.60;;;;;;;44.24;38.99;99455.69;7392265;19;20030;-51
2023/08/24 11:24:17;;;;;;;0.93;0.20;;;;;;;35.64;55.58;99475.13;7396516;19;20010;-50
2023/08/24 11:26:48;;;;;;;0.25;0.20;;;;;;;35.88;47.77;99466.69;7392235;19;20028;-50
2023/08/24 11:29:15;;;;;;;1.13;0.32;;;;;;;26.40;100.00;99480.22;7392796;19;20019;-50
2023/08/24 11:31:41;;;;;;;0.38;0.10;;;;;;;24.77;100.00;99486.78;7392056;19;20015;-50
2023/08/24 11:34:08;;;;;;;1.25;0.10;;;;;;;24.23;100.00;99487.75;7396191;19;20355;-50